Terminal Aerodrome Forecast
Issued by NWS Pittsburgh, PA

Home | Current Version | Previous Version | Text Only | Print | Product List | Glossary On
Versions: 1 2 3 4 5 6 7 8 9 10 11 12 13 14 15 16 17 18 19 20 21 22 23 24 25 26 27 28 29 30 31
000
FTUS41 KPBZ 040857 AAA
TAFPIT
TAF AMD
KPIT 040857Z 0409/0512 VRB04KT P6SM OVC040
     FM041200 16003KT P6SM OVC090
     FM050300 14004KT P6SM VCSH OVC050
     FM050500 17003KT 4SM -SHRA OVC015=

USA.gov is the U.S. government's official web portal to all federal, state and local government web resources and services.